Time;durP1;ratioP1;P1;durP2;ratioP2;P2;SDS_P1;SDS_P2;PMS_P1;PMS_P2;Temp;Humidity;BMP_temperature;BMP_pressure;BME280_temperature;BME280_humidity;BME280_pressure;Samples;Min_cycle;Max_cycle;Signal;HPM_P1;HPM_P2
2023/04/23 00:00:31;;;;;;;45.75;26.10;;;;;;;22.90;36.51;99457.94;4347464;33;33424;-62
2023/04/23 00:02:59;;;;;;;45.92;26.15;;;;;;;22.88;36.56;99458.13;4347522;32;34141;-62
2023/04/23 00:05:27;;;;;;;50.15;27.73;;;;;;;22.87;36.61;99448.31;4347620;32;34019;-63
2023/04/23 00:07:55;;;;;;;43.87;25.60;;;;;;;22.87;36.64;99448.31;4334018;33;33563;-63
2023/04/23 00:10:22;;;;;;;45.22;26.02;;;;;;;22.88;36.68;99455.41;4334207;33;33557;-62
2023/04/23 00:12:50;;;;;;;47.72;26.58;;;;;;;22.87;36.72;99455.62;4333750;33;33757;-62
2023/04/23 00:15:20;;;;;;;50.47;26.48;;;;;;;22.87;36.71;99450.19;4347603;33;34000;-62
2023/04/23 00:17:47;;;;;;;;;;;;;;;22.87;36.74;99455.62;4360214;32;34045;-62
2023/04/23 00:20:15;;;;;;;49.80;26.05;;;;;;;22.95;36.59;99452.63;4362202;32;33446;-62
2023/04/23 00:22:42;;;;;;;40.33;25.15;;;;;;;22.88;36.78;99449.12;4362192;32;34887;-63
2023/04/23 00:25:10;;;;;;;41.95;25.10;;;;;;;22.85;36.83;99455.06;4362104;32;33961;-62
2023/04/23 00:27:37;;;;;;;47.33;26.37;;;;;;;22.86;36.87;99445.81;4362296;32;33930;-62
2023/04/23 00:30:06;;;;;;;44.03;26.20;;;;;;;22.85;36.83;99442.28;4362118;32;34154;-63
2023/04/23 00:32:33;;;;;;;44.42;25.60;;;;;;;22.85;36.83;99445.00;4361856;32;34000;-63
2023/04/23 00:35:01;;;;;;;44.55;24.80;;;;;;;22.84;36.85;99443.31;4361909;32;34147;-63
2023/04/23 00:37:29;;;;;;;44.92;26.15;;;;;;;22.84;36.93;99440.59;4352221;32;34872;-64
2023/04/23 00:39:57;;;;;;;43.00;25.33;;;;;;;22.85;36.95;99442.28;4347240;33;34301;-63
2023/04/23 00:42:25;;;;;;;41.03;23.85;;;;;;;22.85;36.94;99444.19;4348066;32;33738;-62
2023/04/23 00:44:53;;;;;;;42.78;24.63;;;;;;;22.85;36.99;99441.44;4362434;32;33744;-62
2023/04/23 00:47:20;;;;;;;41.30;24.80;;;;;;;22.84;37.02;99432.44;4337346;33;34010;-61
2023/04/23 00:49:49;;;;;;;39.53;24.95;;;;;;;22.84;37.04;99437.06;4342579;32;33290;-61
2023/04/23 00:52:17;;;;;;;44.42;25.83;;;;;;;22.83;37.08;99438.94;4348610;32;33952;-61
2023/04/23 00:54:44;;;;;;;40.97;23.90;;;;;;;22.86;37.06;99443.09;4362152;32;34258;-61
2023/04/23 00:57:12;;;;;;;41.60;24.10;;;;;;;22.85;37.05;99436.00;4361671;32;33973;-61
2023/04/23 00:59:39;;;;;;;42.67;24.55;;;;;;;22.86;37.08;99445.81;4362011;32;34493;-61
2023/04/23 01:02:07;;;;;;;38.67;23.95;;;;;;;22.85;37.08;99436.00;4321675;33;33878;-61
2023/04/23 01:04:35;;;;;;;40.60;23.48;;;;;;;22.86;37.09;99433.06;4346862;33;34785;-61
2023/04/23 01:07:03;;;;;;;40.40;23.00;;;;;;;22.85;37.15;99445.00;4321145;33;33905;-61
2023/04/23 01:09:31;;;;;;;40.38;24.50;;;;;;;22.84;37.16;99434.34;4334005;33;33424;-61
2023/04/23 01:11:58;;;;;;;38.97;23.17;;;;;;;22.83;37.18;99429.97;4321555;33;34253;-61
2023/04/23 01:14:26;;;;;;;41.20;24.55;;;;;;;22.83;37.19;99433.50;4321486;33;34028;-61
2023/04/23 01:16:55;;;;;;;34.83;22.00;;;;;;;22.83;37.21;99438.13;4345815;33;33361;-61
2023/04/23 01:19:22;;;;;;;37.92;22.60;;;;;;;22.82;37.21;99439.19;4333604;33;34260;-61
2023/04/23 01:21:50;;;;;;;39.78;23.42;;;;;;;22.82;37.21;99431.03;4333584;33;34001;-61
2023/04/23 01:24:17;;;;;;;37.90;22.50;;;;;;;22.82;37.28;99431.03;4321938;33;34259;-61
2023/04/23 01:26:45;;;;;;;38.45;21.92;;;;;;;22.83;37.33;99435.41;4346875;33;34451;-61
2023/04/23 01:29:13;;;;;;;39.30;23.05;;;;;;;22.82;37.31;99426.41;4333556;33;33545;-61
2023/04/23 01:31:40;;;;;;;38.22;21.27;;;;;;;22.82;37.30;99431.84;4333552;33;35462;-61
2023/04/23 01:34:09;;;;;;;36.50;21.98;;;;;;;22.81;37.34;99432.91;4333507;33;34641;-61
2023/04/23 01:36:36;;;;;;;38.55;23.08;;;;;;;22.81;37.36;99430.19;4345657;33;33264;-61
2023/04/23 01:39:04;;;;;;;39.65;22.60;;;;;;;22.81;37.41;99434.81;4357972;32;33672;-61
2023/04/23 01:41:32;;;;;;;38.20;22.83;;;;;;;22.80;37.45;99425.81;4361583;32;34114;-61
2023/04/23 01:44:00;;;;;;;40.60;23.00;;;;;;;22.81;37.49;99434.81;4361692;32;33976;-61
2023/04/23 01:46:28;;;;;;;38.58;22.02;;;;;;;22.81;37.49;99430.19;4360160;32;33852;-61
2023/04/23 01:48:55;;;;;;;38.03;21.12;;;;;;;22.83;37.47;99429.97;4360325;32;33551;-61
2023/04/23 01:51:24;;;;;;;40.65;23.52;;;;;;;22.82;37.47;99423.69;4348246;32;34044;-61
2023/04/23 01:53:52;;;;;;;37.88;22.52;;;;;;;22.83;37.61;99421.78;4361418;32;34033;-61
2023/04/23 01:56:20;;;;;;;37.25;21.70;;;;;;;22.83;37.67;99428.06;4361619;32;33775;-61
2023/04/23 01:58:47;;;;;;;38.88;21.77;;;;;;;22.82;37.68;99420.16;4348127;32;33329;-62
2023/04/23 02:01:15;;;;;;;41.20;23.48;;;;;;;22.81;37.69;99419.31;4361321;32;34530;-61
2023/04/23 02:03:43;;;;;;;34.33;21.73;;;;;;;22.82;37.71;99417.44;4361520;32;34693;-61
2023/04/23 02:06:13;;;;;;;35.63;22.17;;;;;;;22.83;37.68;99416.34;4361507;32;34078;-63
2023/04/23 02:08:41;;;;;;;40.85;22.35;;;;;;;22.83;37.76;99413.63;4360154;32;33835;-63
2023/04/23 02:11:09;;;;;;;35.60;22.40;;;;;;;22.82;37.78;99409.25;4361340;32;34794;-63
2023/04/23 02:13:36;;;;;;;38.42;21.87;;;;;;;22.82;37.81;99412.81;4361594;32;33682;-61
2023/04/23 02:16:04;;;;;;;36.63;20.85;;;;;;;22.82;37.86;99420.97;4361263;32;33910;-61
2023/04/23 02:18:32;;;;;;;35.97;21.48;;;;;;;22.83;37.85;99413.63;4361299;32;34287;-61
2023/04/23 02:21:00;;;;;;;37.38;21.42;;;;;;;22.81;37.90;99413.06;4361440;32;34658;-61
2023/04/23 02:23:28;;;;;;;36.97;21.70;;;;;;;22.80;37.91;99414.94;4361129;32;34859;-60
2023/04/23 02:25:56;;;;;;;35.03;21.37;;;;;;;22.82;37.91;99412.81;4361320;32;34412;-61
2023/04/23 02:28:23;;;;;;;34.90;20.37;;;;;;;22.80;37.91;99403.22;4361384;32;33742;-61
2023/04/23 02:30:51;;;;;;;37.53;21.58;;;;;;;22.80;37.92;99406.78;4360971;32;34781;-61
2023/04/23 02:33:18;;;;;;;32.25;20.52;;;;;;;22.80;37.96;99398.63;4361056;32;33877;-61
2023/04/23 02:35:46;;;;;;;35.60;20.35;;;;;;;22.81;37.98;99402.16;4360993;32;35076;-61
2023/04/23 02:38:14;;;;;;;34.13;20.08;;;;;;;22.81;37.95;99407.63;4360978;32;34428;-61
2023/04/23 02:40:42;;;;;;;35.30;20.12;;;;;;;22.80;37.97;99405.94;4361156;32;34486;-61
2023/04/23 02:43:10;;;;;;;35.10;21.45;;;;;;;22.81;38.02;99402.16;4361295;32;34074;-61
2023/04/23 02:45:37;;;;;;;36.45;20.55;;;;;;;22.82;38.03;99401.09;4361007;32;34174;-61
2023/04/23 02:48:05;;;;;;;33.45;20.08;;;;;;;22.82;38.09;99392.94;4361048;32;34485;-61
2023/04/23 02:50:33;;;;;;;37.70;20.83;;;;;;;22.81;38.11;99396.72;4361297;32;33808;-61
2023/04/23 02:53:01;;;;;;;35.28;21.40;;;;;;;22.81;38.11;99394.84;4361042;32;33672;-61
2023/04/23 02:55:30;;;;;;;31.73;19.23;;;;;;;22.80;38.14;99393.19;4361010;32;33918;-61
2023/04/23 02:57:58;;;;;;;39.92;21.67;;;;;;;22.80;38.13;99393.19;4360952;32;33621;-61
2023/04/23 03:00:26;;;;;;;39.10;21.45;;;;;;;22.81;38.13;99391.28;4361051;32;33517;-61
2023/04/23 03:02:53;;;;;;;35.10;20.95;;;;;;;22.80;38.13;99386.88;4360938;32;34842;-63
2023/04/23 03:05:21;;;;;;;33.38;20.10;;;;;;;22.80;38.09;99392.31;4361070;32;34564;-62
2023/04/23 03:07:49;;;;;;;34.22;20.08;;;;;;;22.79;38.09;99387.97;4361068;32;32640;-62
2023/04/23 03:10:16;;;;;;;31.52;19.75;;;;;;;22.79;38.14;99386.06;4360788;32;33904;-63
2023/04/23 03:12:44;;;;;;;35.55;21.15;;;;;;;22.80;38.15;99389.59;4360607;32;34735;-62
2023/04/23 03:15:12;;;;;;;33.00;19.55;;;;;;;22.80;38.19;99384.16;4359610;32;33855;-61
2023/04/23 03:17:40;;;;;;;33.83;19.40;;;;;;;22.79;38.20;99390.69;4360899;32;34255;-62
2023/04/23 03:20:10;;;;;;;33.65;19.00;;;;;;;22.79;38.21;99391.50;4360416;32;34679;-62
2023/04/23 03:22:38;;;;;;;33.08;20.10;;;;;;;22.80;38.23;99387.75;4360868;32;33729;-62
2023/04/23 03:25:05;;;;;;;34.00;19.17;;;;;;;22.81;38.23;99385.84;4360707;32;34257;-63
2023/04/23 03:27:34;;;;;;;36.15;18.37;;;;;;;22.80;38.19;99392.31;4360670;32;34205;-63
2023/04/23 03:30:02;;;;;;;31.55;19.02;;;;;;;22.80;38.18;99386.88;4360931;32;34112;-62
2023/04/23 03:32:30;;;;;;;33.80;18.67;;;;;;;22.79;38.11;99388.78;4367294;32;34102;-61
2023/04/23 03:34:58;;;;;;;34.95;19.25;;;;;;;22.79;38.21;99401.56;4377198;32;34102;-62
2023/04/23 03:37:26;;;;;;;33.78;18.67;;;;;;;22.79;38.31;99401.56;4375293;32;34123;-62
2023/04/23 03:39:53;;;;;;;31.90;19.37;;;;;;;22.79;38.31;99393.41;4362797;32;34136;-62
2023/04/23 03:42:21;;;;;;;32.00;19.15;;;;;;;22.79;38.32;99399.66;4362552;32;33933;-62
2023/04/23 03:44:49;;;;;;;32.55;19.73;;;;;;;22.80;38.31;99397.78;4362750;32;33730;-62
2023/04/23 03:47:16;;;;;;;36.53;20.55;;;;;;;22.79;38.38;99396.12;4362637;32;34331;-62
2023/04/23 03:49:44;;;;;;;30.80;17.55;;;;;;;22.79;38.36;99399.66;4348824;32;34265;-63
2023/04/23 03:52:12;;;;;;;32.60;18.35;;;;;;;22.80;38.39;99400.50;4362878;32;34199;-63
2023/04/23 03:54:41;;;;;;;28.73;17.30;;;;;;;22.79;38.40;99388.78;4362576;32;33575;-64
2023/04/23 03:57:11;;;;;;;35.55;18.60;;;;;;;22.79;38.41;99398.84;4362467;32;33327;-64
2023/04/23 03:59:38;;;;;;;31.77;18.33;;;;;;;22.78;38.41;99397.19;4348904;32;34103;-62
2023/04/23 04:02:07;;;;;;;29.50;17.83;;;;;;;22.76;38.45;99397.44;4362581;32;34839;-62
2023/04/23 04:04:35;;;;;;;33.08;18.33;;;;;;;22.77;38.44;99398.25;4362227;32;33529;-63
2023/04/23 04:07:04;;;;;;;32.88;18.25;;;;;;;22.76;38.46;99400.16;4362285;32;34311;-62
2023/04/23 04:09:31;;;;;;;30.17;18.83;;;;;;;22.76;38.51;99402.03;4362414;32;34288;-63
2023/04/23 04:12:00;;;;;;;30.58;17.60;;;;;;;22.76;38.46;99405.59;4362514;32;33672;-62
2023/04/23 04:14:28;;;;;;;30.95;18.23;;;;;;;22.75;38.58;99405.78;4362025;32;34291;-63
2023/04/23 04:16:55;;;;;;;28.38;17.35;;;;;;;22.76;38.62;99404.75;4362330;32;34523;-63
2023/04/23 04:19:23;;;;;;;31.02;16.40;;;;;;;22.76;38.63;99410.19;4362376;32;35122;-62
2023/04/23 04:21:51;;;;;;;26.83;17.05;;;;;;;22.79;38.65;99412.44;4362304;32;34779;-63
2023/04/23 04:24:18;;;;;;;28.80;17.67;;;;;;;22.77;38.63;99415.41;4362201;32;34762;-62
2023/04/23 04:26:46;;;;;;;29.87;18.15;;;;;;;22.79;38.63;99415.16;4362093;32;33088;-62
2023/04/23 04:29:13;;;;;;;31.70;17.92;;;;;;;22.77;38.64;99417.28;4362160;32;34642;-62
2023/04/23 04:31:41;;;;;;;31.00;17.80;;;;;;;22.77;38.66;99418.12;4362094;32;34609;-62
2023/04/23 04:34:09;;;;;;;29.70;17.00;;;;;;;22.77;38.64;99409.13;4360557;32;34482;-62
2023/04/23 04:36:36;;;;;;;30.85;17.62;;;;;;;22.78;38.66;99416.22;4362306;32;33430;-62
2023/04/23 04:39:04;;;;;;;32.38;18.33;;;;;;;22.79;38.71;99426.88;4361819;32;33961;-62
2023/04/23 04:41:32;;;;;;;26.85;16.50;;;;;;;22.79;38.71;99421.41;4361318;32;34579;-62
2023/04/23 04:43:59;;;;;;;31.08;17.50;;;;;;;22.79;38.68;99426.88;4360584;32;34944;-62
2023/04/23 04:46:28;;;;;;;26.27;15.95;;;;;;;22.79;38.71;99426.88;4361952;32;34108;-62
2023/04/23 04:48:56;;;;;;;28.05;16.02;;;;;;;22.78;38.67;99421.66;4362321;32;34021;-62
2023/04/23 04:51:23;;;;;;;31.92;17.17;;;;;;;22.79;38.72;99424.16;4361966;32;35072;-62
2023/04/23 04:53:51;;;;;;;27.37;15.77;;;;;;;22.79;38.71;99420.59;4361861;32;33473;-62
2023/04/23 04:56:19;;;;;;;30.33;17.17;;;;;;;22.77;38.72;99429.00;4361972;32;33534;-62
2023/04/23 04:58:46;;;;;;;30.20;17.40;;;;;;;22.77;38.71;99433.62;4362353;32;33824;-63
2023/04/23 05:01:14;;;;;;;27.90;17.00;;;;;;;22.76;38.74;99427.34;4362108;32;33976;-63
2023/04/23 05:03:42;;;;;;;27.37;15.48;;;;;;;22.77;38.76;99431.72;4360637;32;34520;-62
2023/04/23 05:06:10;;;;;;;32.25;16.52;;;;;;;22.77;38.76;99423.56;4361983;32;33425;-63
2023/04/23 05:08:38;;;;;;;26.00;15.77;;;;;;;22.79;38.76;99426.03;4361944;32;34011;-62
2023/04/23 05:11:05;;;;;;;27.87;16.60;;;;;;;22.78;38.76;99438.81;4361967;32;33631;-62
2023/04/23 05:13:33;;;;;;;27.48;16.73;;;;;;;22.78;38.73;99440.69;4361041;32;34063;-64
2023/04/23 05:16:01;;;;;;;29.37;16.98;;;;;;;22.78;38.76;99430.66;4360310;32;33112;-62
2023/04/23 05:18:28;;;;;;;34.50;16.85;;;;;;;22.79;38.78;99442.34;4361848;32;33902;-63
2023/04/23 05:20:56;;;;;;;26.35;15.68;;;;;;;22.79;38.75;99434.19;4361814;32;34900;-62
2023/04/23 05:23:23;;;;;;;29.45;17.30;;;;;;;22.80;38.78;99438.56;4361667;32;34746;-62
2023/04/23 05:25:54;;;;;;;27.75;15.18;;;;;;;22.78;38.79;99436.09;4361889;32;34530;-62
2023/04/23 05:28:22;;;;;;;26.80;15.35;;;;;;;22.79;38.78;99439.63;4361729;32;34671;-63
2023/04/23 05:30:49;;;;;;;25.92;15.95;;;;;;;22.79;38.83;99439.63;4361691;32;34048;-63
2023/04/23 05:33:17;;;;;;;25.92;14.90;;;;;;;22.79;38.79;99437.75;4361624;32;33920;-63
2023/04/23 05:35:45;;;;;;;23.95;15.20;;;;;;;22.79;38.70;99443.19;4348008;32;32026;-63
2023/04/23 05:38:12;;;;;;;27.87;16.33;;;;;;;22.79;38.66;99437.75;4361824;32;33723;-65
2023/04/23 05:40:40;;;;;;;26.42;15.95;;;;;;;22.81;38.62;99435.63;4361668;32;33501;-64
2023/04/23 05:43:07;;;;;;;26.45;15.48;;;;;;;22.81;38.58;99434.81;4361714;32;33728;-62
2023/04/23 05:45:35;;;;;;;25.30;16.20;;;;;;;22.79;38.55;99440.47;4361572;32;34256;-62
2023/04/23 05:48:03;;;;;;;26.75;15.73;;;;;;;22.80;38.55;99442.16;4361604;32;34089;-62
2023/04/23 05:50:30;;;;;;;23.65;14.38;;;;;;;22.80;38.60;99444.87;4361630;32;33993;-62
2023/04/23 05:52:57;;;;;;;27.92;16.42;;;;;;;22.80;38.62;99449.44;4347839;32;34257;-62
2023/04/23 05:55:25;;;;;;;23.95;15.10;;;;;;;22.79;38.66;99443.19;4361588;32;33811;-62
2023/04/23 05:57:53;;;;;;;25.85;15.10;;;;;;;22.79;38.68;99442.34;4361526;32;33810;-62
2023/04/23 06:00:20;;;;;;;26.98;15.52;;;;;;;22.78;38.68;99446.97;4361404;32;34824;-61
2023/04/23 06:02:48;;;;;;;29.48;16.33;;;;;;;22.77;38.69;99442.59;4361462;32;33955;-62
2023/04/23 06:05:15;;;;;;;28.87;15.27;;;;;;;22.77;38.71;99448.03;4361461;32;34382;-63
2023/04/23 06:07:43;;;;;;;28.23;16.50;;;;;;;22.77;38.73;99444.50;4361444;32;33584;-62
2023/04/23 06:10:11;;;;;;;33.25;14.38;;;;;;;22.74;38.77;99437.59;4347874;32;33546;-62
2023/04/23 06:12:40;;;;;;;30.77;14.63;;;;;;;22.72;38.83;99447.91;4361452;32;34736;-62
2023/04/23 06:15:08;;;;;;;24.50;13.90;;;;;;;22.71;38.79;99445.37;4361502;32;33333;-63
2023/04/23 06:17:36;;;;;;;25.92;14.55;;;;;;;22.72;38.88;99455.22;4361565;32;34779;-64
2023/04/23 06:20:05;;;;;;;28.38;15.05;;;;;;;22.70;38.92;99455.44;4361075;32;34911;-61
2023/04/23 06:22:32;;;;;;;23.27;13.52;;;;;;;22.71;38.96;99453.56;4361442;32;33739;-64
2023/04/23 06:25:00;;;;;;;26.62;13.93;;;;;;;22.70;38.96;99452.72;4361365;32;34382;-63
2023/04/23 06:27:28;;;;;;;27.17;13.93;;;;;;;22.69;38.96;99458.41;4361286;32;34602;-61
2023/04/23 06:29:57;;;;;;;24.15;13.68;;;;;;;22.69;38.91;99458.41;4361446;32;34887;-62
2023/04/23 06:32:24;;;;;;;23.33;14.27;;;;;;;22.66;38.90;99457.81;4361226;32;34072;-61
2023/04/23 06:34:52;;;;;;;27.87;14.75;;;;;;;22.73;38.71;99451.44;4360965;32;33312;-62
2023/04/23 06:37:30;;;;;;;25.15;15.73;;;;;;;22.77;38.60;99458.09;4359665;32;33842;-61
2023/04/23 06:39:58;;;;;;;23.83;14.15;;;;;;;22.81;38.58;99457.41;4335746;32;33644;-59
2023/04/23 06:42:25;;;;;;;24.65;13.85;;;;;;;22.81;38.58;99451.13;4360843;32;34115;-61
2023/04/23 06:44:55;;;;;;;27.52;13.45;;;;;;;22.82;38.58;99456.34;4361293;32;34677;-62
2023/04/23 06:47:23;;;;;;;18.08;11.73;;;;;;;22.83;38.69;99451.72;4361067;32;34642;-65
2023/04/23 06:49:51;;;;;;;18.77;12.40;;;;;;;22.82;38.63;99456.34;4361096;32;34072;-64
2023/04/23 06:52:18;;;;;;;17.42;10.45;;;;;;;22.81;38.50;99454.69;4359052;32;34125;-61
2023/04/23 06:54:46;;;;;;;23.10;10.95;;;;;;;22.81;38.25;99456.56;4359260;32;33572;-62
2023/04/23 06:57:13;;;;;;;22.60;10.85;;;;;;;22.79;38.08;99453.25;4357365;32;33778;-63
2023/04/23 06:59:41;;;;;;;15.80;9.15;;;;;;;22.81;37.22;99457.41;4360980;32;33873;-64
2023/04/23 07:02:09;;;;;;;16.77;9.55;;;;;;;22.77;35.92;99452.66;4361150;32;34538;-64
2023/04/23 07:04:36;;;;;;;18.83;9.98;;;;;;;22.74;36.31;99445.78;4360774;32;33422;-62
2023/04/23 07:07:05;;;;;;;17.58;9.77;;;;;;;22.74;36.73;99447.66;4362379;32;34050;-64
2023/04/23 07:09:32;;;;;;;14.30;8.68;;;;;;;22.74;36.89;99450.38;4362730;32;34813;-64
2023/04/23 07:12:01;;;;;;;15.38;8.52;;;;;;;22.73;36.86;99448.72;4362706;32;33727;-63
2023/04/23 07:14:28;;;;;;;13.55;9.07;;;;;;;22.72;36.83;99447.91;4362559;32;33648;-61
2023/04/23 07:16:56;;;;;;;15.95;9.02;;;;;;;22.71;36.77;99445.37;4362599;32;34244;-63
2023/04/23 07:19:23;;;;;;;15.32;8.88;;;;;;;22.71;36.81;99448.97;4362487;32;33710;-64
2023/04/23 07:21:52;;;;;;;15.55;8.65;;;;;;;22.71;36.83;99445.37;4362572;32;34426;-64
2023/04/23 07:24:19;;;;;;;15.63;8.48;;;;;;;22.71;36.78;99432.66;4362776;32;33647;-64
2023/04/23 07:26:47;;;;;;;16.83;8.05;;;;;;;22.73;36.70;99437.84;4349464;32;34004;-64
2023/04/23 07:29:14;;;;;;;15.15;7.97;;;;;;;22.74;36.59;99439.50;4362563;32;34173;-63
2023/04/23 07:31:42;;;;;;;15.10;8.63;;;;;;;22.73;36.63;99437.84;4362577;32;34046;-64
2023/04/23 07:34:09;;;;;;;14.68;8.52;;;;;;;22.74;36.69;99443.03;4362296;32;34636;-61
2023/04/23 07:36:37;;;;;;;14.77;8.30;;;;;;;22.75;36.54;99452.84;4362305;32;34137;-63
2023/04/23 07:39:05;;;;;;;14.27;7.90;;;;;;;22.75;36.31;99447.41;4362602;32;34079;-62
2023/04/23 07:41:33;;;;;;;14.20;8.25;;;;;;;22.76;36.40;99442.84;4349356;32;34061;-61
2023/04/23 07:44:00;;;;;;;12.55;8.57;;;;;;;22.76;36.38;99438.22;4362499;32;33251;-62
2023/04/23 07:46:28;;;;;;;14.75;7.72;;;;;;;22.76;36.31;99443.66;4362339;32;33856;-63
2023/04/23 07:48:55;;;;;;;14.18;7.93;;;;;;;22.77;35.96;99441.78;4362407;32;34138;-63
2023/04/23 07:51:25;;;;;;;14.25;7.55;;;;;;;22.78;36.11;99441.53;4362350;32;34028;-63
2023/04/23 07:53:53;;;;;;;10.55;6.93;;;;;;;22.78;36.29;99440.69;4337189;32;33059;-64
2023/04/23 07:56:21;;;;;;;15.05;7.82;;;;;;;22.80;36.29;99444.00;4362278;32;34927;-63
2023/04/23 07:58:49;;;;;;;11.12;7.68;;;;;;;22.79;36.22;99442.34;4362367;32;34972;-63
2023/04/23 08:01:16;;;;;;;12.48;7.37;;;;;;;22.79;35.95;99443.19;4362312;32;34003;-63
2023/04/23 08:03:44;;;;;;;11.82;7.10;;;;;;;22.80;35.83;99438.56;4362459;32;34204;-62
2023/04/23 08:06:12;;;;;;;11.07;6.85;;;;;;;22.81;36.09;99441.06;4357621;32;34544;-64
2023/04/23 08:08:39;;;;;;;13.38;7.40;;;;;;;22.81;36.04;99440.25;4364961;32;33750;-61
2023/04/23 08:11:07;;;;;;;10.90;7.00;;;;;;;22.81;35.92;99434.81;4377249;32;34102;-64
2023/04/23 08:13:35;;;;;;;11.75;6.60;;;;;;;22.82;35.48;99434.56;4362842;32;34375;-63
2023/04/23 08:16:02;;;;;;;9.88;6.75;;;;;;;22.83;35.42;99436.22;4361797;32;33929;-64
2023/04/23 08:18:30;;;;;;;9.25;6.50;;;;;;;22.84;35.07;99434.34;4361871;32;33998;-63
2023/04/23 08:20:58;;;;;;;10.90;6.72;;;;;;;22.83;35.26;99432.69;4362080;32;34102;-63
2023/04/23 08:23:26;;;;;;;10.57;6.10;;;;;;;22.84;35.41;99431.59;4362023;32;34525;-63
2023/04/23 08:25:54;;;;;;;12.70;7.00;;;;;;;22.85;35.13;99427.84;4334067;33;33808;-63
2023/04/23 08:28:21;;;;;;;11.20;7.05;;;;;;;22.84;34.96;99427.00;4347299;33;34716;-64
2023/04/23 08:30:49;;;;;;;10.30;6.50;;;;;;;22.86;34.82;99427.59;4347074;33;34493;-62
2023/04/23 08:33:16;;;;;;;10.25;6.25;;;;;;;22.88;34.61;99430.09;4340421;33;33402;-63
2023/04/23 08:35:45;;;;;;;11.60;6.45;;;;;;;22.89;34.63;99438.03;4347507;33;33894;-63
2023/04/23 08:38:12;;;;;;;9.85;5.72;;;;;;;22.87;34.71;99437.44;4333497;33;34764;-64
2023/04/23 08:40:41;;;;;;;9.20;6.43;;;;;;;22.88;34.84;99435.53;4347535;33;33938;-62
2023/04/23 08:43:20;;;;;;;10.52;6.00;;;;;;;22.88;34.67;99430.09;4333999;33;33160;-63
2023/04/23 08:45:48;;;;;;;12.15;6.22;;;;;;;22.90;34.54;99428.00;4347186;33;34046;-61
2023/04/23 08:48:16;;;;;;;11.93;6.75;;;;;;;22.90;34.44;99417.97;4347185;33;34022;-61
2023/04/23 08:50:43;;;;;;;13.30;6.75;;;;;;;22.90;34.52;99417.13;4345729;33;34719;-63
2023/04/23 08:53:11;;;;;;;12.50;7.28;;;;;;;22.90;34.54;99417.97;4347203;33;33122;-63
2023/04/23 08:55:38;;;;;;;10.57;6.45;;;;;;;22.92;34.59;99423.16;4333629;33;34909;-61
2023/04/23 08:58:06;;;;;;;16.10;6.57;;;;;;;22.91;34.65;99418.78;4333563;33;34855;-63
2023/04/23 09:00:34;;;;;;;11.77;6.90;;;;;;;22.91;34.77;99414.16;4350508;32;33965;-61
2023/04/23 09:03:01;;;;;;;9.55;6.32;;;;;;;22.93;34.83;99413.94;4360973;32;33201;-64
2023/04/23 09:05:29;;;;;;;12.88;6.40;;;;;;;22.92;34.90;99410.38;4360631;32;34070;-62
2023/04/23 09:07:58;;;;;;;12.13;6.25;;;;;;;22.92;34.95;99410.38;4348424;32;34933;-63
2023/04/23 09:10:26;;;;;;;11.93;6.25;;;;;;;22.94;34.25;99407.41;4362149;32;33865;-61
2023/04/23 09:12:53;;;;;;;13.20;6.57;;;;;;;22.93;34.57;99408.50;4361693;32;33448;-63
2023/04/23 09:15:21;;;;;;;13.15;6.37;;;;;;;22.97;34.45;99404.25;4361888;32;34807;-61
2023/04/23 09:17:50;;;;;;;8.57;6.32;;;;;;;22.96;34.32;99404.50;4360971;32;34019;-62
2023/04/23 09:20:17;;;;;;;8.52;5.75;;;;;;;22.97;34.03;99401.53;4361677;32;34723;-63
2023/04/23 09:22:49;;;;;;;13.00;6.87;;;;;;;22.95;34.31;99403.66;4361805;32;33483;-63
2023/04/23 09:25:18;;;;;;;12.18;5.62;;;;;;;22.96;34.11;99397.16;4361832;32;34087;-62
2023/04/23 09:27:47;;;;;;;9.57;6.07;;;;;;;22.95;34.23;99398.22;4360284;32;33718;-63
2023/04/23 09:30:14;;;;;;;12.68;6.25;;;;;;;22.96;34.29;99402.59;4356539;32;34644;-63
2023/04/23 09:32:44;;;;;;;11.30;5.95;;;;;;;22.97;34.22;99401.53;4360015;32;34231;-64
2023/04/23 09:35:14;;;;;;;11.27;5.93;;;;;;;22.96;34.26;99399.87;4368635;32;34143;-59
2023/04/23 09:37:42;;;;;;;13.57;5.37;;;;;;;22.97;34.38;99392.53;4376339;32;34697;-60
2023/04/23 09:40:11;;;;;;;15.18;6.00;;;;;;;22.97;34.23;99398.81;4376050;32;33971;-59
2023/04/23 09:42:39;;;;;;;10.48;5.75;;;;;;;22.99;34.06;99387.69;4363002;32;33255;-62
2023/04/23 09:45:09;;;;;;;8.25;5.25;;;;;;;22.99;34.01;99396.69;4376477;32;34240;-62
2023/04/23 09:47:38;;;;;;;10.80;6.20;;;;;;;22.99;33.97;99387.69;4371556;32;33968;-61
2023/04/23 09:50:09;;;;;;;11.43;5.50;;;;;;;23.00;33.73;99384.75;4352011;32;32467;-63
2023/04/23 09:52:40;;;;;;;10.02;5.57;;;;;;;23.03;32.44;99391.59;4361628;32;34025;-60
2023/04/23 09:55:07;;;;;;;11.90;5.07;;;;;;;23.01;32.48;99391.84;4361243;32;35092;-64
2023/04/23 09:57:45;;;;;;;10.60;5.05;;;;;;;23.02;32.91;99371.72;4360325;32;34844;-64
2023/04/23 10:00:21;;;;;;;9.77;6.03;;;;;;;23.00;32.83;99381.19;4359431;32;34626;-63
2023/04/23 10:02:50;;;;;;;7.28;4.70;;;;;;;23.00;32.50;99373.84;4361449;32;34433;-64
2023/04/23 10:05:19;;;;;;;7.87;4.55;;;;;;;23.01;31.75;99377.41;4361363;32;34028;-63
2023/04/23 10:07:49;;;;;;;9.30;4.82;;;;;;;22.99;31.90;99372.22;4361353;32;33530;-64
2023/04/23 10:10:18;;;;;;;9.05;4.85;;;;;;;22.98;32.01;99367.81;4361451;32;34729;-64
2023/04/23 10:12:45;;;;;;;8.60;5.30;;;;;;;22.98;32.10;99370.53;4361264;32;34216;-63
2023/04/23 10:15:25;;;;;;;6.62;4.37;;;;;;;22.99;32.20;99372.22;4359554;32;33662;-64
2023/04/23 10:17:53;;;;;;;7.80;4.25;;;;;;;22.98;32.35;99358.81;4356882;32;34647;-63
2023/04/23 10:20:21;;;;;;;7.43;5.20;;;;;;;22.98;32.46;99356.91;4360172;32;34751;-62
2023/04/23 10:22:49;;;;;;;7.00;4.28;;;;;;;22.98;32.38;99353.37;4361689;32;33500;-64
2023/04/23 10:25:16;;;;;;;8.25;4.97;;;;;;;22.98;32.31;99364.25;4349847;32;33562;-64
2023/04/23 10:27:47;;;;;;;9.35;4.97;;;;;;;22.98;32.00;99354.19;4332981;33;34853;-64
2023/04/23 10:30:21;;;;;;;12.80;4.93;;;;;;;22.99;31.74;99352.31;4352032;32;33594;-63
2023/04/23 10:32:48;;;;;;;9.02;4.75;;;;;;;23.00;31.76;99356.72;4361409;32;33457;-64
2023/04/23 10:35:16;;;;;;;10.82;5.22;;;;;;;23.00;32.11;99349.38;4364750;32;34536;-64
2023/04/23 10:37:45;;;;;;;7.80;4.70;;;;;;;23.00;32.30;99343.09;4362889;32;33868;-63
2023/04/23 10:40:14;;;;;;;7.60;5.03;;;;;;;23.01;32.47;99345.56;4335142;32;34632;-64
2023/04/23 10:42:42;;;;;;;8.27;4.68;;;;;;;23.02;31.74;99341.78;4347312;32;33791;-63
2023/04/23 10:45:14;;;;;;;7.87;4.20;;;;;;;23.05;31.52;99346.78;4347606;32;34658;-64
2023/04/23 10:47:53;;;;;;;6.53;4.12;;;;;;;23.04;30.92;99341.56;4360808;32;34518;-64
2023/04/23 10:50:22;;;;;;;7.85;4.25;;;;;;;23.06;31.19;99329.38;4360771;32;34035;-64
2023/04/23 10:52:52;;;;;;;6.53;4.20;;;;;;;23.06;30.47;99328.56;4346879;32;33142;-63
2023/04/23 10:55:21;;;;;;;9.32;4.95;;;;;;;23.06;30.61;99332.09;4346094;33;34852;-64
2023/04/23 10:58:06;;;;;;;7.17;4.47;;;;;;;23.06;30.70;99334.00;4345998;33;33823;-64
2023/04/23 11:00:39;;;;;;;6.25;4.10;;;;;;;23.06;30.92;99340.25;4349692;32;33609;-64
2023/04/23 11:03:42;;;;;;;10.85;4.30;;;;;;;23.03;31.25;99340.72;4360914;32;34027;-63
2023/04/23 11:06:18;;;;;;;7.70;4.25;;;;;;;23.04;31.43;99331.50;4308433;32;33466;-63
2023/04/23 11:08:55;;;;;;;6.57;3.78;;;;;;;23.02;31.42;99333.62;4347176;32;35048;-63
2023/04/23 11:11:39;;;;;;;6.78;4.30;;;;;;;23.02;31.34;99338.25;4360711;32;33707;-63
2023/04/23 11:14:13;;;;;;;7.45;4.35;;;;;;;23.02;31.45;99332.81;4356563;32;33181;-60
2023/04/23 11:16:40;;;;;;;9.30;4.37;;;;;;;23.00;31.50;99333.03;4355794;32;33678;-59
2023/04/23 11:19:11;;;;;;;7.18;4.53;;;;;;;23.02;31.52;99336.34;4360088;32;33668;-63
2023/04/23 11:21:57;;;;;;;9.20;4.47;;;;;;;23.02;31.63;99330.91;4375321;32;33744;-63
2023/04/23 11:24:40;;;;;;;8.77;4.05;;;;;;;23.04;31.83;99328.78;4375055;32;34111;-61
2023/04/23 11:27:10;;;;;;;9.20;4.28;;;;;;;23.04;31.95;99322.53;4345459;33;33787;-61